Time;durP1;ratioP1;P1;durP2;ratioP2;P2;SDS_P1;SDS_P2;PMS_P1;PMS_P2;Temp;Humidity;BMP_temperature;BMP_pressure;BME280_temperature;BME280_humidity;BME280_pressure;Samples;Min_cycle;Max_cycle;Signal;HPM_P1;HPM_P2
2021/01/10 00:00:22;;;;;;;;;;;11.40;87.00;;;;;;2103314;28;806;-55
2021/01/10 00:01:47;;;;;;;;;;;11.40;87.20;;;;;;2101696;28;721;-54
2021/01/10 00:03:06;;;;;;;;;;;11.40;87.20;;;;;;2098802;28;773;-54
2021/01/10 00:04:26;;;;;;;;;;;11.40;87.30;;;;;;2098956;28;729;-55
2021/01/10 00:05:45;;;;;;;;;;;11.40;87.40;;;;;;2098726;28;726;-55
2021/01/10 00:07:04;;;;;;;;;;;11.40;87.30;;;;;;2089859;28;754;-55
2021/01/10 00:08:23;;;;;;;;;;;11.40;88.10;;;;;;2089934;28;993;-55
2021/01/10 00:09:42;;;;;;;;;;;11.40;87.50;;;;;;2096220;28;1089;-55
2021/01/10 00:11:02;;;;;;;;;;;11.40;87.50;;;;;;2095582;28;1044;-56
2021/01/10 00:12:24;;;;;;;;;;;11.40;87.80;;;;;;2098801;28;1910;-55
2021/01/10 00:13:43;;;;;;;;;;;11.40;87.90;;;;;;2089862;28;757;-56
2021/01/10 00:15:03;;;;;;;;;;;11.40;88.00;;;;;;2093981;28;982;-56
2021/01/10 00:16:22;;;;;;;;;;;11.40;88.10;;;;;;2087315;28;730;-56
2021/01/10 00:17:43;;;;;;;;;;;11.40;88.10;;;;;;2094034;28;763;-57
2021/01/10 00:19:03;;;;;;;;;;;11.40;88.20;;;;;;2098513;28;1364;-56
2021/01/10 00:20:22;;;;;;;;;;;11.40;88.10;;;;;;2098518;28;727;-57
2021/01/10 00:21:41;;;;;;;;;;;11.30;88.30;;;;;;2098726;28;717;-55
2021/01/10 00:23:00;;;;;;;;;;;11.30;88.30;;;;;;2098618;28;763;-55
2021/01/10 00:24:20;;;;;;;;;;;11.30;88.30;;;;;;2089855;28;735;-56
2021/01/10 00:25:39;;;;;;;;;;;11.40;88.50;;;;;;2094580;28;1069;-57
2021/01/10 00:26:58;;;;;;;;;;;11.30;88.50;;;;;;2089865;28;793;-55
2021/01/10 00:28:17;;;;;;;;;;;11.40;88.70;;;;;;2102266;28;732;-57
2021/01/10 00:29:37;;;;;;;;;;;11.30;88.50;;;;;;2092896;28;1454;-55
2021/01/10 00:30:56;;;;;;;;;;;11.30;89.10;;;;;;2095133;28;722;-56
2021/01/10 00:32:15;;;;;;;;;;;11.30;88.60;;;;;;2098304;28;1914;-55
2021/01/10 00:33:34;;;;;;;;;;;11.30;88.60;;;;;;2089770;28;701;-55
2021/01/10 00:34:53;;;;;;;;;;;11.30;88.80;;;;;;2094595;28;756;-56
2021/01/10 00:36:13;;;;;;;;;;;11.30;88.90;;;;;;2098434;28;717;-55
2021/01/10 00:37:32;;;;;;;;;;;11.30;88.90;;;;;;2098627;28;792;-57
2021/01/10 00:38:51;;;;;;;;;;;11.30;88.90;;;;;;2080574;28;1515;-56
2021/01/10 00:40:10;;;;;;;;;;;11.30;89.00;;;;;;2088519;28;1512;-55
2021/01/10 00:41:37;;;;;;;;;;;11.30;89.20;;;;;;2090240;28;722;-55
2021/01/10 00:42:56;;;;;;;;;;;11.30;89.30;;;;;;2081445;28;721;-56
2021/01/10 00:44:15;;;;;;;;;;;11.30;89.30;;;;;;2081041;28;807;-55
2021/01/10 00:45:34;;;;;;;;;;;11.30;89.40;;;;;;2086144;28;908;-55
2021/01/10 00:46:54;;;;;;;;;;;11.30;89.50;;;;;;2090027;28;783;-55
2021/01/10 00:48:13;;;;;;;;;;;11.30;89.40;;;;;;2084483;28;777;-55
2021/01/10 00:49:32;;;;;;;;;;;11.30;89.70;;;;;;2076325;28;1472;-54
2021/01/10 00:50:52;;;;;;;;;;;11.20;89.50;;;;;;2073236;28;774;-55
2021/01/10 00:52:11;;;;;;;;;;;11.20;89.70;;;;;;2072747;28;1894;-55
2021/01/10 00:53:30;;;;;;;;;;;11.20;89.80;;;;;;2081903;28;787;-55
2021/01/10 00:54:49;;;;;;;;;;;11.30;89.70;;;;;;2067710;28;745;-55
2021/01/10 00:56:11;;;;;;;;;;;11.20;89.80;;;;;;2070022;28;744;-55
2021/01/10 00:57:30;;;;;;;;;;;11.20;89.90;;;;;;2075060;28;771;-57
2021/01/10 00:58:49;;;;;;;;;;;11.20;89.90;;;;;;2067510;28;1485;-57
2021/01/10 01:00:12;;;;;;;;;;;11.20;90.00;;;;;;2085034;28;1032;-56
2021/01/10 01:01:35;;;;;;;;;;;11.20;90.00;;;;;;2077167;28;1036;-56
2021/01/10 01:02:55;;;;;;;;;;;11.20;89.90;;;;;;2077046;28;964;-55
2021/01/10 01:04:17;;;;;;;;;;;11.20;90.40;;;;;;2079199;28;744;-56
2021/01/10 01:05:37;;;;;;;;;;;11.20;90.00;;;;;;2067462;28;756;-55
2021/01/10 01:06:56;;;;;;;;;;;11.20;90.00;;;;;;2069335;28;747;-56
2021/01/10 01:08:16;;;;;;;;;;;11.20;90.10;;;;;;2074503;28;970;-57
2021/01/10 01:09:39;;;;;;;;;;;11.20;90.10;;;;;;2091514;28;967;-57
2021/01/10 01:10:59;;;;;;;;;;;11.20;90.10;;;;;;2092418;28;1273;-55
2021/01/10 01:12:18;;;;;;;;;;;11.20;90.20;;;;;;2089896;28;1938;-54
2021/01/10 01:13:37;;;;;;;;;;;11.20;90.50;;;;;;2083402;28;1391;-54
2021/01/10 01:14:56;;;;;;;;;;;11.20;90.50;;;;;;2086007;28;728;-55
2021/01/10 01:16:15;;;;;;;;;;;11.20;90.30;;;;;;2089834;28;706;-57
2021/01/10 01:17:36;;;;;;;;;;;11.20;90.20;;;;;;2089985;28;725;-56
2021/01/10 01:18:55;;;;;;;;;;;11.20;90.30;;;;;;2089876;28;1376;-56
2021/01/10 01:20:15;;;;;;;;;;;11.20;90.40;;;;;;2090053;28;711;-56
2021/01/10 01:21:34;;;;;;;;;;;11.20;90.30;;;;;;2090016;28;732;-56
2021/01/10 01:22:53;;;;;;;;;;;11.10;90.30;;;;;;2090017;28;757;-57
2021/01/10 01:24:12;;;;;;;;;;;11.10;90.30;;;;;;2081138;28;726;-56
2021/01/10 01:25:31;;;;;;;;;;;11.10;90.40;;;;;;2085372;28;737;-56
2021/01/10 01:26:50;;;;;;;;;;;11.10;90.40;;;;;;2089944;28;785;-55
2021/01/10 01:28:10;;;;;;;;;;;11.10;90.30;;;;;;2089924;28;788;-54
2021/01/10 01:29:29;;;;;;;;;;;11.20;90.40;;;;;;2089832;28;1373;-55
2021/01/10 01:30:48;;;;;;;;;;;11.10;90.80;;;;;;2089768;28;742;-57
2021/01/10 01:32:07;;;;;;;;;;;11.10;90.80;;;;;;2080893;28;1906;-56
2021/01/10 01:33:26;;;;;;;;;;;11.10;90.60;;;;;;2086530;28;778;-57
2021/01/10 01:34:46;;;;;;;;;;;11.10;90.60;;;;;;2080348;28;764;-56
2021/01/10 01:36:08;;;;;;;;;;;11.10;90.60;;;;;;2080867;28;770;-57
2021/01/10 01:37:28;;;;;;;;;;;11.10;90.60;;;;;;2094304;28;720;-54
2021/01/10 01:38:47;;;;;;;;;;;11.10;90.80;;;;;;2090495;28;1406;-57
2021/01/10 01:40:06;;;;;;;;;;;11.10;90.70;;;;;;2092010;28;1079;-56
2021/01/10 01:41:26;;;;;;;;;;;11.10;90.80;;;;;;2098156;28;763;-57
2021/01/10 01:42:46;;;;;;;;;;;11.10;90.80;;;;;;2097792;28;957;-56
2021/01/10 01:44:05;;;;;;;;;;;11.10;91.10;;;;;;2098022;28;728;-56
2021/01/10 01:45:24;;;;;;;;;;;11.10;91.10;;;;;;2088587;28;791;-56
2021/01/10 01:46:44;;;;;;;;;;;11.10;90.90;;;;;;2094249;28;748;-57
2021/01/10 01:48:04;;;;;;;;;;;11.10;90.90;;;;;;2097982;28;725;-56
2021/01/10 01:49:23;;;;;;;;;;;11.10;90.80;;;;;;2088805;28;1468;-56
2021/01/10 01:50:43;;;;;;;;;;;11.10;91.00;;;;;;2094390;28;808;-56
2021/01/10 01:52:02;;;;;;;;;;;11.10;90.90;;;;;;2098030;28;753;-55
2021/01/10 01:53:21;;;;;;;;;;;11.10;90.90;;;;;;2089091;28;785;-56
2021/01/10 01:54:42;;;;;;;;;;;11.10;91.00;;;;;;2101784;28;768;-56
2021/01/10 01:56:01;;;;;;;;;;;11.10;91.00;;;;;;2100923;28;721;-56
2021/01/10 01:57:20;;;;;;;;;;;11.00;90.90;;;;;;2097764;28;738;-56
2021/01/10 01:58:54;;;;;;;;;;;11.10;91.30;;;;;;2080610;28;749;-56
2021/01/10 02:00:13;;;;;;;;;;;11.00;91.30;;;;;;2095327;28;749;-56
2021/01/10 02:01:33;;;;;;;;;;;11.10;91.30;;;;;;2097539;28;698;-55
2021/01/10 02:02:52;;;;;;;;;;;11.00;91.30;;;;;;2097880;28;738;-56
2021/01/10 02:04:14;;;;;;;;;;;11.10;91.10;;;;;;2080858;28;724;-55
2021/01/10 02:05:34;;;;;;;;;;;11.10;91.10;;;;;;2082594;28;740;-55
2021/01/10 02:07:11;;;;;;;;;;;11.00;91.10;;;;;;2102174;28;739;-56
2021/01/10 02:08:31;;;;;;;;;;;11.00;91.00;;;;;;2084525;28;1070;-56
2021/01/10 02:09:51;;;;;;;;;;;11.00;91.10;;;;;;2077112;28;1202;-56
2021/01/10 02:11:11;;;;;;;;;;;11.00;91.10;;;;;;2097075;28;1131;-57
2021/01/10 02:12:30;;;;;;;;;;;11.00;91.10;;;;;;2100748;28;1902;-56
2021/01/10 02:13:49;;;;;;;;;;;11.00;91.10;;;;;;2080752;28;744;-56
2021/01/10 02:15:11;;;;;;;;;;;11.00;91.10;;;;;;2090045;28;710;-56
2021/01/10 02:16:30;;;;;;;;;;;11.00;91.20;;;;;;2088636;28;724;-57
2021/01/10 02:17:50;;;;;;;;;;;11.00;91.20;;;;;;2093898;28;783;-57
2021/01/10 02:19:18;;;;;;;;;;;11.00;91.20;;;;;;2088986;28;1448;-57
2021/01/10 02:20:38;;;;;;;;;;;11.00;91.20;;;;;;2103736;28;804;-56
2021/01/10 02:21:57;;;;;;;;;;;10.90;91.20;;;;;;2100732;28;739;-56
2021/01/10 02:23:17;;;;;;;;;;;11.00;91.30;;;;;;2089091;28;790;-56
2021/01/10 02:24:36;;;;;;;;;;;11.00;91.30;;;;;;2101966;28;752;-56
2021/01/10 02:25:56;;;;;;;;;;;11.00;91.30;;;;;;2100966;28;727;-56
2021/01/10 02:27:15;;;;;;;;;;;11.00;91.30;;;;;;2089086;28;764;-57
2021/01/10 02:28:34;;;;;;;;;;;10.90;91.30;;;;;;2094256;28;736;-56
2021/01/10 02:29:53;;;;;;;;;;;10.90;91.30;;;;;;2088841;28;775;-56
2021/01/10 02:31:12;;;;;;;;;;;10.90;91.30;;;;;;2102063;28;772;-57
2021/01/10 02:32:32;;;;;;;;;;;11.00;91.70;;;;;;2091838;28;1902;-56
2021/01/10 02:33:52;;;;;;;;;;;11.00;91.50;;;;;;2102255;28;777;-56
2021/01/10 02:35:12;;;;;;;;;;;10.90;91.40;;;;;;2091121;28;763;-56
2021/01/10 02:37:06;;;;;;;;;;;10.90;91.40;;;;;;2093780;28;757;-57
2021/01/10 02:38:48;;;;;;;;;;;11.00;91.50;;;;;;2058463;28;1003;-56
2021/01/10 02:40:14;;;;;;;;;;;10.90;91.40;;;;;;2051824;28;1251;-56
2021/01/10 02:41:34;;;;;;;;;;;10.90;91.50;;;;;;2094886;28;732;-56
2021/01/10 02:43:05;;;;;;;;;;;10.90;91.40;;;;;;2092097;28;763;-57
2021/01/10 02:44:31;;;;;;;;;;;10.90;91.50;;;;;;2089461;28;728;-56
2021/01/10 02:45:50;;;;;;;;;;;10.90;91.50;;;;;;2072554;28;726;-54
2021/01/10 02:47:09;;;;;;;;;;;10.90;91.50;;;;;;2075940;28;823;-56
2021/01/10 02:48:28;;;;;;;;;;;10.90;91.60;;;;;;2081440;28;772;-56
2021/01/10 02:49:48;;;;;;;;;;;10.90;91.60;;;;;;2075043;28;769;-56
2021/01/10 02:51:07;;;;;;;;;;;10.90;91.60;;;;;;2080972;28;765;-56
2021/01/10 02:52:26;;;;;;;;;;;10.90;91.60;;;;;;2086064;28;1915;-56
2021/01/10 02:53:46;;;;;;;;;;;10.90;91.70;;;;;;2086542;28;732;-55
2021/01/10 02:55:06;;;;;;;;;;;10.90;91.70;;;;;;2076839;28;733;-56
2021/01/10 02:56:25;;;;;;;;;;;10.90;91.70;;;;;;2083732;28;769;-57
2021/01/10 02:57:45;;;;;;;;;;;10.90;91.70;;;;;;2076408;28;733;-55
2021/01/10 02:59:04;;;;;;;;;;;10.90;91.60;;;;;;2078137;28;1374;-55
2021/01/10 03:00:24;;;;;;;;;;;10.90;91.90;;;;;;2073430;28;792;-54
2021/01/10 03:01:43;;;;;;;;;;;10.90;92.00;;;;;;2076331;28;1177;-56
2021/01/10 03:03:02;;;;;;;;;;;10.90;91.70;;;;;;2090490;28;806;-54
2021/01/10 03:04:22;;;;;;;;;;;10.90;91.70;;;;;;2080532;28;767;-55
2021/01/10 03:05:41;;;;;;;;;;;10.90;91.80;;;;;;2093757;28;752;-55
2021/01/10 03:07:00;;;;;;;;;;;10.90;91.80;;;;;;2094075;28;726;-55
2021/01/10 03:08:19;;;;;;;;;;;10.90;91.80;;;;;;2082090;28;722;-55
2021/01/10 03:09:39;;;;;;;;;;;10.90;91.80;;;;;;2097215;28;1406;-57
2021/01/10 03:10:58;;;;;;;;;;;10.90;91.80;;;;;;2082652;28;1938;-57
2021/01/10 03:12:24;;;;;;;;;;;10.90;91.80;;;;;;2089870;28;1902;-57
2021/01/10 03:13:43;;;;;;;;;;;10.90;91.90;;;;;;2098471;28;1067;-57
2021/01/10 03:15:02;;;;;;;;;;;10.80;91.80;;;;;;2090084;28;1145;-55
2021/01/10 03:16:22;;;;;;;;;;;10.90;91.90;;;;;;2090020;28;1020;-56
2021/01/10 03:17:41;;;;;;;;;;;10.80;91.90;;;;;;2081837;28;941;-56
2021/01/10 03:19:00;;;;;;;;;;;10.80;91.90;;;;;;2087257;28;1409;-56
2021/01/10 03:20:20;;;;;;;;;;;10.80;91.90;;;;;;2090818;28;714;-57
2021/01/10 03:21:39;;;;;;;;;;;10.90;91.90;;;;;;2093283;28;1355;-57
2021/01/10 03:22:58;;;;;;;;;;;10.80;91.90;;;;;;2081931;28;761;-57
2021/01/10 03:24:17;;;;;;;;;;;10.80;91.90;;;;;;2087448;28;804;-56
2021/01/10 03:25:36;;;;;;;;;;;10.80;91.90;;;;;;2090054;28;748;-57
2021/01/10 03:26:56;;;;;;;;;;;10.80;91.90;;;;;;2081943;28;745;-57
2021/01/10 03:28:15;;;;;;;;;;;10.80;92.40;;;;;;2087201;28;811;-57
2021/01/10 03:29:34;;;;;;;;;;;10.80;92.30;;;;;;2090739;28;1360;-57
2021/01/10 03:30:53;;;;;;;;;;;10.80;92.00;;;;;;2081889;28;970;-57
2021/01/10 03:32:13;;;;;;;;;;;10.80;92.00;;;;;;2086862;28;1914;-57
2021/01/10 03:33:32;;;;;;;;;;;10.80;92.00;;;;;;2081837;28;733;-57
2021/01/10 03:34:51;;;;;;;;;;;10.80;92.00;;;;;;2077665;28;747;-56
2021/01/10 03:36:11;;;;;;;;;;;10.80;91.90;;;;;;2087125;28;737;-54
2021/01/10 03:37:31;;;;;;;;;;;10.80;92.10;;;;;;2090706;28;775;-56
2021/01/10 03:38:50;;;;;;;;;;;10.80;92.10;;;;;;2089437;28;1413;-56
2021/01/10 03:40:10;;;;;;;;;;;10.80;92.10;;;;;;2083574;28;1139;-54
2021/01/10 03:41:29;;;;;;;;;;;10.80;92.10;;;;;;2089969;28;753;-56
2021/01/10 03:42:48;;;;;;;;;;;10.80;92.10;;;;;;2090110;28;769;-56
2021/01/10 03:44:08;;;;;;;;;;;10.80;92.40;;;;;;2090433;28;871;-57
2021/01/10 03:45:27;;;;;;;;;;;10.80;92.40;;;;;;2089701;28;714;-56
2021/01/10 03:46:46;;;;;;;;;;;10.80;92.10;;;;;;2090127;28;720;-56
2021/01/10 03:48:05;;;;;;;;;;;10.80;92.10;;;;;;2098344;28;727;-56
2021/01/10 03:49:25;;;;;;;;;;;10.80;92.10;;;;;;2084871;28;1401;-56
2021/01/10 03:50:45;;;;;;;;;;;10.80;92.20;;;;;;2081807;28;748;-56
2021/01/10 03:52:04;;;;;;;;;;;10.80;92.20;;;;;;2094882;28;732;-56
2021/01/10 03:53:24;;;;;;;;;;;10.80;92.20;;;;;;2084908;28;785;-57
2021/01/10 03:54:43;;;;;;;;;;;10.80;92.20;;;;;;2086332;28;780;-56
2021/01/10 03:56:02;;;;;;;;;;;10.70;92.10;;;;;;2081555;28;709;-56
2021/01/10 03:57:21;;;;;;;;;;;10.70;92.10;;;;;;2086405;28;808;-56
2021/01/10 03:58:40;;;;;;;;;;;10.80;92.20;;;;;;2090638;28;715;-55
2021/01/10 03:59:59;;;;;;;;;;;10.80;92.30;;;;;;2081722;28;729;-55
2021/01/10 04:01:19;;;;;;;;;;;10.70;92.20;;;;;;2084192;28;829;-55
2021/01/10 04:02:38;;;;;;;;;;;10.70;92.40;;;;;;2089351;28;748;-57
2021/01/10 04:03:57;;;;;;;;;;;10.70;92.50;;;;;;2072666;28;718;-55
2021/01/10 04:05:16;;;;;;;;;;;10.70;92.30;;;;;;2082365;28;766;-55
2021/01/10 04:06:35;;;;;;;;;;;10.70;92.20;;;;;;2093052;28;1628;-55
2021/01/10 04:07:55;;;;;;;;;;;10.70;92.20;;;;;;2089088;28;1421;-55
2021/01/10 04:09:14;;;;;;;;;;;10.70;92.20;;;;;;2083093;28;1437;-55
2021/01/10 04:10:34;;;;;;;;;;;10.70;92.20;;;;;;2080761;28;1252;-55
2021/01/10 04:11:53;;;;;;;;;;;10.70;92.30;;;;;;2093799;28;1138;-56
2021/01/10 04:13:12;;;;;;;;;;;10.70;92.20;;;;;;2086469;28;1175;-56
2021/01/10 04:14:31;;;;;;;;;;;10.70;92.30;;;;;;2089369;28;1334;-56
2021/01/10 04:15:50;;;;;;;;;;;10.70;92.30;;;;;;2093851;28;1954;-55
2021/01/10 04:17:10;;;;;;;;;;;10.70;92.30;;;;;;2096025;28;1270;-55
2021/01/10 04:18:29;;;;;;;;;;;10.70;92.40;;;;;;2098212;28;1357;-55
2021/01/10 04:19:48;;;;;;;;;;;10.70;92.70;;;;;;2095722;28;1189;-56
2021/01/10 04:21:07;;;;;;;;;;;10.70;92.40;;;;;;2088003;28;1336;-57
2021/01/10 04:22:26;;;;;;;;;;;10.70;92.30;;;;;;2084005;28;1270;-56
2021/01/10 04:23:46;;;;;;;;;;;10.70;92.40;;;;;;2100331;28;1145;-57
2021/01/10 04:25:05;;;;;;;;;;;10.70;92.40;;;;;;2083968;28;1381;-57
2021/01/10 04:26:24;;;;;;;;;;;10.70;92.40;;;;;;2093151;28;1078;-58
2021/01/10 04:27:43;;;;;;;;;;;10.70;92.30;;;;;;2082597;28;1074;-57
2021/01/10 04:29:03;;;;;;;;;;;10.70;92.40;;;;;;2093572;28;1409;-55
2021/01/10 04:30:22;;;;;;;;;;;10.70;92.50;;;;;;2096575;28;1105;-56
2021/01/10 04:31:41;;;;;;;;;;;10.70;92.40;;;;;;2093841;28;1213;-56
2021/01/10 04:33:00;;;;;;;;;;;10.70;92.40;;;;;;2085668;28;1906;-57
2021/01/10 04:34:19;;;;;;;;;;;10.70;92.40;;;;;;2090185;28;1059;-56
2021/01/10 04:35:38;;;;;;;;;;;10.70;92.50;;;;;;2091965;28;1855;-57
2021/01/10 04:36:58;;;;;;;;;;;10.70;92.50;;;;;;2092483;28;1099;-56
2021/01/10 04:38:17;;;;;;;;;;;10.70;92.50;;;;;;2095541;28;1154;-56
2021/01/10 04:39:36;;;;;;;;;;;10.70;92.50;;;;;;2104164;28;1437;-57
2021/01/10 04:40:57;;;;;;;;;;;10.60;92.80;;;;;;2097981;28;1277;-56
2021/01/10 04:42:16;;;;;;;;;;;10.70;92.50;;;;;;2086418;28;887;-56
2021/01/10 04:43:35;;;;;;;;;;;10.70;92.60;;;;;;2088199;28;1269;-57
2021/01/10 04:44:55;;;;;;;;;;;10.70;92.50;;;;;;2092862;28;806;-57
2021/01/10 04:46:14;;;;;;;;;;;10.70;92.60;;;;;;2087894;28;1300;-57
2021/01/10 04:47:33;;;;;;;;;;;10.60;92.60;;;;;;2091577;28;1104;-56
2021/01/10 04:48:53;;;;;;;;;;;10.70;92.50;;;;;;2091339;28;1436;-56
2021/01/10 04:50:12;;;;;;;;;;;10.60;92.50;;;;;;2079889;28;1374;-57
2021/01/10 04:51:31;;;;;;;;;;;10.60;92.50;;;;;;2090228;28;1151;-56
2021/01/10 04:52:52;;;;;;;;;;;10.70;92.60;;;;;;2086063;28;1906;-57
2021/01/10 04:54:11;;;;;;;;;;;10.60;92.50;;;;;;2085936;28;1304;-56
2021/01/10 04:55:31;;;;;;;;;;;10.60;92.50;;;;;;2088335;28;1315;-56
2021/01/10 04:56:50;;;;;;;;;;;10.60;92.60;;;;;;2096778;28;1362;-57
2021/01/10 04:58:09;;;;;;;;;;;10.60;92.60;;;;;;2078172;28;1267;-57
2021/01/10 04:59:28;;;;;;;;;;;10.60;92.60;;;;;;2089980;28;1392;-56
2021/01/10 05:00:48;;;;;;;;;;;10.60;92.60;;;;;;2086790;28;1379;-57
2021/01/10 05:02:08;;;;;;;;;;;10.60;92.50;;;;;;2087702;28;1202;-57
2021/01/10 05:03:27;;;;;;;;;;;10.60;92.50;;;;;;2091646;28;1242;-54
2021/01/10 05:04:47;;;;;;;;;;;10.60;92.60;;;;;;2086147;28;1248;-55
2021/01/10 05:06:07;;;;;;;;;;;10.60;92.70;;;;;;2087695;28;1189;-56
2021/01/10 05:07:26;;;;;;;;;;;10.60;92.60;;;;;;2088910;28;1054;-55
2021/01/10 05:08:46;;;;;;;;;;;10.60;92.60;;;;;;2083685;28;1543;-57
2021/01/10 05:10:05;;;;;;;;;;;10.60;92.60;;;;;;2089785;28;1035;-57
2021/01/10 05:11:24;;;;;;;;;;;10.60;92.60;;;;;;2088041;28;1368;-55
2021/01/10 05:12:43;;;;;;;;;;;10.60;92.70;;;;;;2091404;28;1910;-55
2021/01/10 05:14:03;;;;;;;;;;;10.60;92.80;;;;;;2085399;28;1275;-55
2021/01/10 05:15:22;;;;;;;;;;;10.60;92.70;;;;;;2092454;28;1239;-58
2021/01/10 05:16:42;;;;;;;;;;;10.60;92.80;;;;;;2087408;28;854;-55
2021/01/10 05:18:01;;;;;;;;;;;10.60;92.80;;;;;;2092000;28;1197;-55
2021/01/10 05:19:23;;;;;;;;;;;10.60;92.80;;;;;;2095944;28;1411;-57
2021/01/10 05:20:42;;;;;;;;;;;10.60;92.70;;;;;;2087822;28;1310;-57
2021/01/10 05:22:07;;;;;;;;;;;10.60;92.80;;;;;;2096535;28;1109;-58
2021/01/10 05:23:26;;;;;;;;;;;10.60;93.20;;;;;;2081205;28;1344;-56
2021/01/10 05:24:49;;;;;;;;;;;10.50;92.70;;;;;;2090527;28;1473;-56
2021/01/10 05:26:08;;;;;;;;;;;10.60;92.90;;;;;;2091155;28;1447;-57
2021/01/10 05:27:36;;;;;;;;;;;10.60;92.90;;;;;;2088309;28;921;-57
2021/01/10 05:28:55;;;;;;;;;;;10.50;92.90;;;;;;2088081;28;1385;-57
2021/01/10 05:30:15;;;;;;;;;;;10.60;93.00;;;;;;2088255;28;1142;-57
2021/01/10 05:31:43;;;;;;;;;;;10.50;92.90;;;;;;2082529;28;1393;-57
2021/01/10 05:33:07;;;;;;;;;;;10.50;92.80;;;;;;2089748;28;1906;-56
2021/01/10 05:34:26;;;;;;;;;;;10.50;92.80;;;;;;2077112;28;1047;-56
2021/01/10 05:35:54;;;;;;;;;;;10.50;93.00;;;;;;2087889;28;969;-58
2021/01/10 05:37:14;;;;;;;;;;;10.50;93.00;;;;;;2092894;28;979;-57
2021/01/10 05:38:33;;;;;;;;;;;10.50;93.00;;;;;;2096410;28;968;-57
2021/01/10 05:39:55;;;;;;;;;;;10.50;93.00;;;;;;2089151;28;1149;-56
2021/01/10 05:41:14;;;;;;;;;;;10.50;93.10;;;;;;2097026;28;973;-56
2021/01/10 05:42:33;;;;;;;;;;;10.50;93.10;;;;;;2095497;28;1030;-55
2021/01/10 05:43:59;;;;;;;;;;;10.50;93.00;;;;;;2079798;28;964;-57
2021/01/10 05:45:31;;;;;;;;;;;10.50;93.10;;;;;;2094032;28;1412;-57
2021/01/10 05:46:59;;;;;;;;;;;10.50;93.20;;;;;;2087721;28;991;-56
2021/01/10 05:48:19;;;;;;;;;;;10.40;93.20;;;;;;2102349;28;1126;-59
2021/01/10 05:49:45;;;;;;;;;;;10.50;93.30;;;;;;2100056;28;1380;-61
2021/01/10 05:51:04;;;;;;;;;;;10.50;94.50;;;;;;2092243;28;907;-56
2021/01/10 05:52:23;;;;;;;;;;;10.50;94.50;;;;;;2087908;28;1969;-55
2021/01/10 05:53:42;;;;;;;;;;;10.50;95.00;;;;;;2093551;28;1280;-56
2021/01/10 05:55:08;;;;;;;;;;;10.50;95.50;;;;;;2082220;28;1214;-57
2021/01/10 05:56:27;;;;;;;;;;;10.50;94.90;;;;;;2084691;28;899;-57
2021/01/10 05:57:46;;;;;;;;;;;10.50;94.80;;;;;;2093205;28;1467;-57
2021/01/10 05:59:05;;;;;;;;;;;10.50;94.30;;;;;;2092521;28;1412;-56
2021/01/10 06:00:30;;;;;;;;;;;10.50;94.00;;;;;;2084600;28;1052;-57
2021/01/10 06:01:53;;;;;;;;;;;10.40;94.00;;;;;;2102268;28;1219;-56
2021/01/10 06:03:12;;;;;;;;;;;10.50;93.80;;;;;;2097245;28;1414;-55
2021/01/10 06:04:32;;;;;;;;;;;10.40;93.60;;;;;;2075774;28;1226;-54
2021/01/10 06:05:52;;;;;;;;;;;10.50;93.50;;;;;;2086188;28;1272;-56
2021/01/10 06:07:11;;;;;;;;;;;10.40;93.50;;;;;;2090276;28;1231;-55
2021/01/10 06:08:32;;;;;;;;;;;10.40;93.50;;;;;;2085281;28;1121;-55
2021/01/10 06:09:52;;;;;;;;;;;10.40;93.50;;;;;;2093327;28;1517;-55
2021/01/10 06:11:16;;;;;;;;;;;10.40;93.50;;;;;;2094814;28;1072;-54
2021/01/10 06:12:36;;;;;;;;;;;10.40;93.50;;;;;;2087411;28;1898;-55
2021/01/10 06:14:04;;;;;;;;;;;10.40;93.50;;;;;;2089900;28;1168;-56
2021/01/10 06:15:23;;;;;;;;;;;10.40;93.50;;;;;;2089772;28;1119;-56
2021/01/10 06:16:42;;;;;;;;;;;10.40;93.50;;;;;;2076463;28;1326;-55
2021/01/10 06:18:01;;;;;;;;;;;10.40;93.50;;;;;;2082392;28;1342;-56
2021/01/10 06:19:24;;;;;;;;;;;10.40;93.80;;;;;;2086467;28;1538;-57
2021/01/10 06:20:43;;;;;;;;;;;10.40;93.50;;;;;;2094301;28;1254;-57
2021/01/10 06:22:03;;;;;;;;;;;10.40;93.50;;;;;;2096728;28;1166;-55
2021/01/10 06:23:25;;;;;;;;;;;10.40;93.50;;;;;;2087287;28;1177;-55
2021/01/10 06:24:45;;;;;;;;;;;10.40;93.50;;;;;;2085332;28;1233;-55
2021/01/10 06:26:04;;;;;;;;;;;10.40;93.50;;;;;;2092470;28;1367;-55
2021/01/10 06:27:24;;;;;;;;;;;10.40;93.60;;;;;;2087702;28;1203;-55
2021/01/10 06:28:50;;;;;;;;;;;10.30;93.50;;;;;;2075131;28;1180;-55
2021/01/10 06:30:10;;;;;;;;;;;10.40;93.90;;;;;;2091891;28;1282;-55
2021/01/10 06:31:32;;;;;;;;;;;10.40;93.50;;;;;;2087878;28;1193;-57
2021/01/10 06:32:51;;;;;;;;;;;10.40;93.50;;;;;;2093229;28;1914;-55
2021/01/10 06:34:11;;;;;;;;;;;10.40;93.90;;;;;;2084709;28;1230;-55
2021/01/10 06:35:36;;;;;;;;;;;10.30;93.80;;;;;;2085457;28;1331;-56
2021/01/10 06:36:56;;;;;;;;;;;10.30;93.50;;;;;;2084909;28;1246;-55
2021/01/10 06:38:15;;;;;;;;;;;10.30;93.50;;;;;;2083947;28;1214;-57
2021/01/10 06:39:38;;;;;;;;;;;10.30;93.50;;;;;;2075306;28;1495;-57
2021/01/10 06:41:12;;;;;;;;;;;10.30;93.80;;;;;;2094667;28;1294;-55
2021/01/10 06:42:32;;;;;;;;;;;10.30;93.60;;;;;;2088942;28;1343;-57
2021/01/10 06:44:03;;;;;;;;;;;10.30;93.50;;;;;;2095077;28;1385;-55
2021/01/10 06:45:23;;;;;;;;;;;10.30;93.60;;;;;;2088778;28;1191;-56
2021/01/10 06:46:47;;;;;;;;;;;10.30;93.50;;;;;;2084838;28;1308;-55
2021/01/10 06:48:07;;;;;;;;;;;10.30;93.60;;;;;;2099329;28;1390;-55
2021/01/10 06:49:26;;;;;;;;;;;10.30;93.80;;;;;;2093821;28;1446;-55
2021/01/10 06:50:45;;;;;;;;;;;10.30;93.70;;;;;;2096823;28;952;-55
2021/01/10 06:52:04;;;;;;;;;;;10.30;93.80;;;;;;2076483;28;1373;-55
2021/01/10 06:53:24;;;;;;;;;;;10.30;93.80;;;;;;2084529;28;1268;-55
2021/01/10 06:54:46;;;;;;;;;;;10.30;93.90;;;;;;2083284;28;1285;-55
2021/01/10 06:56:05;;;;;;;;;;;10.30;93.80;;;;;;2085956;28;1279;-55
2021/01/10 06:57:29;;;;;;;;;;;10.30;93.90;;;;;;2080099;28;1174;-55
2021/01/10 06:59:00;;;;;;;;;;;10.30;93.90;;;;;;2086762;28;1559;-57
2021/01/10 07:00:19;;;;;;;;;;;10.20;93.90;;;;;;2089511;28;1077;-57
2021/01/10 07:01:48;;;;;;;;;;;10.20;94.10;;;;;;2088313;28;1316;-56
2021/01/10 07:03:07;;;;;;;;;;;10.20;94.10;;;;;;2077204;28;1303;-57
2021/01/10 07:04:33;;;;;;;;;;;10.20;94.00;;;;;;2084176;28;1277;-57
2021/01/10 07:05:58;;;;;;;;;;;10.20;94.20;;;;;;2073051;28;1079;-56
2021/01/10 07:07:33;;;;;;;;;;;10.20;94.10;;;;;;2088258;28;1287;-57
2021/01/10 07:08:53;;;;;;;;;;;10.20;94.20;;;;;;2088322;28;1423;-56
2021/01/10 07:10:13;;;;;;;;;;;10.20;94.10;;;;;;2088169;28;1088;-55
2021/01/10 07:11:32;;;;;;;;;;;10.20;94.10;;;;;;2074827;28;1442;-56
2021/01/10 07:12:52;;;;;;;;;;;10.20;94.20;;;;;;2082362;28;1969;-56
2021/01/10 07:14:11;;;;;;;;;;;10.20;94.20;;;;;;2065292;28;1207;-55
2021/01/10 07:15:30;;;;;;;;;;;10.20;94.20;;;;;;2078066;28;1175;-55
2021/01/10 07:16:50;;;;;;;;;;;10.20;94.20;;;;;;2092925;28;968;-57
2021/01/10 07:18:09;;;;;;;;;;;10.20;94.10;;;;;;2083654;28;1256;-57
2021/01/10 07:19:37;;;;;;;;;;;10.20;94.30;;;;;;2080116;28;1519;-56
2021/01/10 07:20:57;;;;;;;;;;;10.20;94.30;;;;;;2075962;28;1405;-56
2021/01/10 07:22:26;;;;;;;;;;;10.10;94.30;;;;;;2089889;28;1297;-56
2021/01/10 07:23:45;;;;;;;;;;;10.20;94.30;;;;;;2094375;28;1295;-57
2021/01/10 07:25:24;;;;;;;;;;;10.10;94.40;;;;;;2091077;28;1142;-57
2021/01/10 07:26:43;;;;;;;;;;;10.20;94.40;;;;;;2086406;28;847;-56
2021/01/10 07:28:21;;;;;;;;;;;10.20;94.30;;;;;;2093048;28;1278;-56
2021/01/10 07:29:44;;;;;;;;;;;10.10;94.30;;;;;;2094619;28;1389;-57
2021/01/10 07:31:04;;;;;;;;;;;10.10;94.40;;;;;;2091127;28;1020;-56
2021/01/10 07:32:33;;;;;;;;;;;10.10;94.30;;;;;;2096223;28;1927;-55
2021/01/10 07:34:07;;;;;;;;;;;10.10;94.40;;;;;;2096322;28;1103;-54
2021/01/10 07:35:26;;;;;;;;;;;10.10;94.40;;;;;;2083500;28;1270;-57
2021/01/10 07:36:46;;;;;;;;;;;10.10;94.40;;;;;;2092614;28;918;-55
2021/01/10 07:38:05;;;;;;;;;;;10.10;94.40;;;;;;2088240;28;1219;-55
2021/01/10 07:39:26;;;;;;;;;;;10.10;94.30;;;;;;2078225;28;1480;-55
2021/01/10 07:40:45;;;;;;;;;;;10.10;94.40;;;;;;2092045;28;1086;-56
2021/01/10 07:42:11;;;;;;;;;;;10.10;94.30;;;;;;2097011;28;905;-55
2021/01/10 07:43:47;;;;;;;;;;;10.10;94.30;;;;;;2097123;28;1182;-55
2021/01/10 07:45:20;;;;;;;;;;;10.20;94.40;;;;;;2092467;28;1217;-55
2021/01/10 07:46:57;;;;;;;;;;;10.20;94.40;;;;;;2095295;28;895;-57
2021/01/10 07:48:25;;;;;;;;;;;10.20;94.40;;;;;;2096793;28;1060;-56
2021/01/10 07:49:51;;;;;;;;;;;10.30;94.70;;;;;;2086578;28;1364;-56
2021/01/10 07:51:13;;;;;;;;;;;10.40;94.50;;;;;;2085517;28;1184;-55
2021/01/10 07:52:41;;;;;;;;;;;10.50;94.30;;;;;;2102213;28;1910;-56
2021/01/10 07:54:00;;;;;;;;;;;10.60;94.20;;;;;;2095601;28;1327;-56
2021/01/10 07:55:20;;;;;;;;;;;10.60;92.90;;;;;;2088200;28;1107;-56
2021/01/10 07:56:39;;;;;;;;;;;10.70;92.50;;;;;;2088406;28;1242;-56
2021/01/10 07:58:00;;;;;;;;;;;10.70;92.10;;;;;;2089160;28;1177;-55
2021/01/10 07:59:20;;;;;;;;;;;10.80;91.80;;;;;;2102350;28;1539;-58
2021/01/10 08:00:45;;;;;;;;;;;10.90;91.80;;;;;;2092030;28;1124;-56